Agnew, Washington
Current Conditions -  °F | °C
As of 4:53 PM on Tuesday 27 Jan 2015 (Local Time) from KCLM Reporting Station
Overcast Overcast  
Wind Chill: 45°   Ceiling: 1800
Heat Index: 48°   Visibility: 10mi
Dew Point: 42°   Wind: 7mph
Humidity: 80%   Direction: 280°W
Pressure: 30.14"   Gusts: NA
Location:  48.0203°N, 123.478°W
Report Text: KCLM 280053Z AUTO 28006KT 10SM OVC018 09/06 A3014 RMK AO2 SLP206 T00890056
Loading
Personal Weather Stations






























Interactive Weather Map New forecast layout! Learn more

10-Day Weather Forecast

Advertisements
Track Severe Weather on mobile